Main page
METAR-TAF:

METAR-TAF

Airports :

Dalaman, Turkey

Dalaman Airport

latitude: 36-42N, longitude: 028-47E, elevation: 7 m

Current weather observation

The report was made 20 hours and 35 minutes ago, at 14:50 UTC
Wind 4 kt from the Northwest
Temperature 13°C
Humidity 82%
Pressure 1011 hPa
Visibility: 8000 m
Scattered clouds at a height of 3000 ft
Broken clouds at a height of 9000 ft
light rain showers

METAR: LTBS 201450Z 31004KT 8000 -SHRA SCT030 BKN090 13/10 Q1011 NOSIG RMK RWY19 29004KT

Time: 14:25 (11:25 UTC)

Forecast

The report was made 24 hours and 45 minutes ago, at 10:40 UTC
Forecast valid from 20 at 12 UTC to 21 at 12 UTC
Wind 2 kt from variable directions
Visibility 10 km or more
Scattered clouds at a height of 3000 ft
Broken clouds at a height of 8000 ft
light rain showers

TAF: LTBS 201040Z 2012/2112 VRB02KT 9999 -SHRA SCT030 BKN080

Weather observations and forecasts of more than 4000 airports (METAR and TAF reports).

The available stations are represented by yellow and red dots on the map.

Hover mouse over dot to see the name of the station.

Then click to see weather observations and forecasts.

To change the map : click on the green buttons with a black cross to zoom in, on the green button with a dash to zoom out, or on the green arrows for adjacent maps.


METAR-TAF: